Time;durP1;ratioP1;P1;durP2;ratioP2;P2;SDS_P1;SDS_P2;PMS_P1;PMS_P2;Temp;Humidity;BMP_temperature;BMP_pressure;BME280_temperature;BME280_humidity;BME280_pressure;Samples;Min_cycle;Max_cycle;Signal;HPM_P1;HPM_P2
2021/12/01 00:00:08;;;;;;;0.15;0.13;;;;;;;4.72;77.69;95732.03;5127072;28;20039;-70
2021/12/01 00:02:35;;;;;;;0.22;0.20;;;;;;;4.75;77.74;95723.34;5128350;28;20074;-70
2021/12/01 00:05:02;;;;;;;1.77;0.20;;;;;;;4.80;77.65;95723.25;5127320;28;20043;-70
2021/12/01 00:07:30;;;;;;;0.40;0.30;;;;;;;4.77;77.93;95706.88;5127379;28;20051;-70
2021/12/01 00:09:56;;;;;;;0.25;0.25;;;;;;;4.75;77.54;95715.25;5126825;28;20051;-70
2021/12/01 00:12:22;;;;;;;0.38;0.20;;;;;;;4.79;77.91;95710.84;5127906;28;20047;-69
2021/12/01 00:14:49;;;;;;;0.20;0.20;;;;;;;4.81;77.54;95703.28;5127517;28;20047;-70
2021/12/01 00:17:15;;;;;;;0.50;0.35;;;;;;;4.80;77.86;95696.25;5127806;28;20044;-70
2021/12/01 00:19:43;;;;;;;1.55;0.30;;;;;;;4.82;77.85;95698.69;5128543;28;20413;-70
2021/12/01 00:22:10;;;;;;;0.30;0.22;;;;;;;4.82;77.90;95694.09;5127963;28;20051;-70
2021/12/01 00:24:36;;;;;;;0.30;0.25;;;;;;;4.82;77.62;95698.69;5128379;28;20073;-70
2021/12/01 00:27:03;;;;;;;0.30;0.30;;;;;;;4.83;77.71;95709.16;5127439;28;20098;-70
2021/12/01 00:29:29;;;;;;;0.10;0.10;;;;;;;4.81;77.85;95684.41;5128175;28;20047;-70
2021/12/01 00:31:56;;;;;;;0.22;0.20;;;;;;;4.79;77.85;95694.66;5128224;28;20051;-70
2021/12/01 00:34:24;;;;;;;0.75;0.30;;;;;;;4.80;78.14;95701.66;5127911;28;20058;-70
2021/12/01 00:36:52;;;;;;;0.55;0.32;;;;;;;4.79;78.55;95689.28;5128499;28;20508;-70
2021/12/01 00:39:19;;;;;;;0.20;0.20;;;;;;;4.81;77.92;95691.69;5127292;28;20658;-70
2021/12/01 00:41:47;;;;;;;0.40;0.40;;;;;;;4.82;78.32;95688.69;5127337;28;20058;-70
2021/12/01 00:44:14;;;;;;;0.28;0.20;;;;;;;4.81;78.51;95665.53;5127637;28;20055;-70
2021/12/01 00:46:42;;;;;;;0.20;0.20;;;;;;;4.79;78.90;95673.09;5127970;28;20634;-70
2021/12/01 00:49:09;;;;;;;0.30;0.28;;;;;;;4.80;78.54;95685.47;5127588;28;20057;-70
2021/12/01 00:51:36;;;;;;;0.52;0.20;;;;;;;4.72;79.45;95670.00;5128085;28;20059;-70
2021/12/01 00:54:03;;;;;;;0.20;0.20;;;;;;;4.69;79.94;95667.88;5127793;28;20055;-70
2021/12/01 00:56:30;;;;;;;0.20;0.20;;;;;;;4.63;80.48;95685.25;5127801;28;20054;-70
2021/12/01 00:58:56;;;;;;;0.88;0.25;;;;;;;4.59;80.75;95684.22;5128299;28;20688;-70
2021/12/01 01:01:23;;;;;;;0.57;0.30;;;;;;;4.54;80.75;95665.44;5127377;28;20051;-70
2021/12/01 01:03:50;;;;;;;0.55;0.20;;;;;;;4.51;81.19;95671.44;5129387;27;20043;-69
2021/12/01 01:06:16;;;;;;;0.50;0.32;;;;;;;4.47;81.77;95670.44;5130936;27;20047;-70
2021/12/01 01:08:45;;;;;;;0.20;0.20;;;;;;;4.45;82.64;95673.44;5131792;27;20055;-70
2021/12/01 01:16:43;;;;;;;2.08;0.20;;;;;;;4.32;83.07;95658.81;5131181;27;20169;-71
2021/12/01 01:19:10;;;;;;;0.30;0.30;;;;;;;4.35;83.13;95657.44;5130903;27;20047;-70
2021/12/01 01:21:48;;;;;;;0.20;0.20;;;;;;;4.30;83.49;95650.22;5131313;27;20066;-71
2021/12/01 01:24:15;;;;;;;0.20;0.20;;;;;;;4.32;82.44;95641.84;5130688;27;20130;-70
2021/12/01 01:26:43;;;;;;;0.52;0.30;;;;;;;4.33;82.58;95646.94;5131079;27;20058;-70
2021/12/01 01:29:10;;;;;;;0.77;0.30;;;;;;;4.36;82.54;95638.25;5130951;27;20054;-70
2021/12/01 01:31:37;;;;;;;0.20;0.20;;;;;;;4.36;82.38;95646.34;5131182;27;20066;-71
2021/12/01 01:34:05;;;;;;;0.20;0.20;;;;;;;4.39;82.50;95643.06;5130743;27;20444;-70
2021/12/01 01:36:31;;;;;;;0.65;0.20;;;;;;;4.40;83.03;95644.66;5130909;27;20051;-70
2021/12/01 01:38:59;;;;;;;0.20;0.20;;;;;;;4.37;83.34;95628.28;5130580;27;20058;-71
2021/12/01 01:41:26;;;;;;;1.02;0.20;;;;;;;4.38;82.77;95643.34;5129477;27;20051;-71
2021/12/01 01:43:54;;;;;;;1.25;0.30;;;;;;;4.34;82.83;95640.47;5131332;27;20055;-71
2021/12/01 01:46:21;;;;;;;0.20;0.20;;;;;;;4.35;83.00;95633.16;5130179;27;20051;-71
2021/12/01 01:48:53;;;;;;;0.15;0.15;;;;;;;4.37;82.45;95639.84;5130795;27;20051;-70
2021/12/01 01:51:22;;;;;;;0.22;0.20;;;;;;;4.40;82.40;95614.22;5130194;27;20043;-73
2021/12/01 01:53:52;;;;;;;0.22;0.20;;;;;;;4.40;82.09;95633.09;5130590;27;20055;-70
2021/12/01 01:56:19;;;;;;;0.73;0.52;;;;;;;4.44;81.49;95624.09;5129933;27;20047;-71
2021/12/01 01:58:46;;;;;;;0.10;0.10;;;;;;;4.51;80.97;95615.63;5130811;27;20498;-71
2021/12/01 02:01:25;;;;;;;0.20;0.20;;;;;;;4.58;81.01;95616.03;5130074;27;20050;-71
2021/12/01 02:03:52;;;;;;;0.17;0.17;;;;;;;4.65;80.53;95619.16;5130743;27;20051;-71
2021/12/01 02:06:23;;;;;;;0.17;0.17;;;;;;;4.68;80.15;95607.75;5129663;27;20522;-71
2021/12/01 02:08:50;;;;;;;0.28;0.20;;;;;;;4.74;79.85;95611.16;5130615;27;20058;-70
2021/12/01 02:11:18;;;;;;;1.30;0.38;;;;;;;4.78;79.88;95606.75;5127811;27;20055;-70
2021/12/01 02:13:45;;;;;;;1.65;0.20;;;;;;;4.81;79.86;95598.09;5129986;27;20054;-70
2021/12/01 02:16:15;;;;;;;0.30;0.30;;;;;;;4.80;80.36;95593.75;5128681;27;20058;-70
2021/12/01 02:18:42;;;;;;;0.35;0.20;;;;;;;4.86;79.76;95597.19;5130070;27;20043;-70
2021/12/01 02:21:11;;;;;;;0.10;0.10;;;;;;;4.85;80.09;95595.56;5128499;27;20051;-70
2021/12/01 02:23:40;;;;;;;0.20;0.20;;;;;;;4.81;80.58;95587.28;5130242;27;20046;-70
2021/12/01 02:26:08;;;;;;;0.13;0.13;;;;;;;4.79;80.71;95584.09;5128654;27;20051;-70
2021/12/01 02:28:35;;;;;;;0.30;0.25;;;;;;;4.78;80.60;95574.41;5129784;27;20047;-70
2021/12/01 02:31:03;;;;;;;0.30;0.20;;;;;;;4.82;80.39;95577.31;5128603;27;20051;-70
2021/12/01 02:33:30;;;;;;;0.20;0.20;;;;;;;4.83;80.20;95566.19;5129357;27;20058;-71
2021/12/01 02:35:57;;;;;;;0.60;0.30;;;;;;;4.82;80.59;95564.63;5129248;27;20047;-70
2021/12/01 02:38:25;;;;;;;0.20;0.20;;;;;;;4.83;79.82;95560.81;5128476;27;20723;-70
2021/12/01 02:40:52;;;;;;;0.30;0.30;;;;;;;4.83;80.15;95547.31;5121893;27;20052;-70
2021/12/01 02:43:23;;;;;;;0.52;0.30;;;;;;;4.83;79.64;95552.72;5107532;28;20085;-70
2021/12/01 02:45:51;;;;;;;0.20;0.20;;;;;;;4.86;79.80;95554.81;5109394;28;20055;-71
2021/12/01 02:48:18;;;;;;;0.75;0.30;;;;;;;4.91;79.41;95535.84;5107224;28;20545;-70
2021/12/01 02:50:44;;;;;;;0.30;0.28;;;;;;;4.97;78.64;95531.94;5109114;28;20220;-70
2021/12/01 02:53:11;;;;;;;1.20;0.30;;;;;;;4.98;78.83;95535.41;5107469;28;20051;-71
2021/12/01 02:55:42;;;;;;;0.17;0.17;;;;;;;5.04;78.86;95522.63;5109037;28;20066;-70
2021/12/01 02:58:09;;;;;;;0.22;0.22;;;;;;;5.08;78.72;95513.63;5107316;28;20110;-70
2021/12/01 03:00:36;;;;;;;0.30;0.30;;;;;;;5.11;78.42;95523.00;5108061;28;20133;-70
2021/12/01 03:03:02;;;;;;;0.40;0.30;;;;;;;5.15;78.13;95503.19;5107686;28;20043;-71
2021/12/01 03:05:29;;;;;;;0.15;0.15;;;;;;;5.21;77.66;95507.38;5107966;28;20043;-70
2021/12/01 03:07:56;;;;;;;0.73;0.30;;;;;;;5.22;77.81;95505.50;5115483;27;20042;-70
2021/12/01 03:10:23;;;;;;;0.10;0.10;;;;;;;5.21;77.22;95510.06;5126185;27;20050;-71
2021/12/01 03:12:51;;;;;;;0.20;0.20;;;;;;;5.26;77.23;95517.25;5129240;27;20058;-70
2021/12/01 03:15:19;;;;;;;0.20;0.20;;;;;;;5.27;76.98;95518.84;5128953;27;20050;-70
2021/12/01 03:17:45;;;;;;;3.47;0.30;;;;;;;5.26;77.50;95511.06;5128792;27;20538;-70
2021/12/01 03:20:14;;;;;;;0.40;0.20;;;;;;;5.26;77.54;95513.78;5128601;27;20058;-70
2021/12/01 03:22:41;;;;;;;0.10;0.10;;;;;;;5.25;77.36;95510.28;5129202;27;20047;-71
2021/12/01 03:25:11;;;;;;;0.55;0.20;;;;;;;5.24;77.72;95501.38;5128679;27;20502;-70
2021/12/01 03:27:38;;;;;;;0.40;0.30;;;;;;;5.22;78.02;95497.41;5128072;27;20061;-70
2021/12/01 03:30:08;;;;;;;0.20;0.20;;;;;;;5.19;78.31;95498.00;5128492;27;20055;-70
2021/12/01 03:32:35;;;;;;;0.20;0.10;;;;;;;5.14;78.59;95506.22;5129240;27;20055;-70
2021/12/01 03:35:04;;;;;;;0.10;0.10;;;;;;;5.13;78.63;95512.72;5128690;27;20054;-70
2021/12/01 03:37:30;;;;;;;0.30;0.20;;;;;;;5.08;79.00;95496.63;5128632;27;20050;-70
2021/12/01 03:39:58;;;;;;;0.20;0.20;;;;;;;5.07;78.72;95495.03;5123055;27;20054;-70
2021/12/01 03:42:25;;;;;;;0.35;0.17;;;;;;;5.07;78.61;95489.66;5128624;27;20074;-71
2021/12/01 03:44:52;;;;;;;0.03;0.03;;;;;;;5.04;79.04;95479.44;5121553;27;20055;-71
2021/12/01 03:47:20;;;;;;;0.25;0.20;;;;;;;5.02;78.48;95476.25;5128468;27;20050;-70
2021/12/01 03:49:46;;;;;;;0.40;0.20;;;;;;;5.02;78.97;95478.97;5128790;27;20506;-70
2021/12/01 03:52:16;;;;;;;0.25;0.17;;;;;;;5.02;78.82;95463.56;5128471;28;20512;-70
2021/12/01 03:54:43;;;;;;;0.40;0.30;;;;;;;5.00;79.50;95473.84;5128976;28;20134;-70
2021/12/01 03:57:09;;;;;;;0.35;0.30;;;;;;;4.94;80.17;95465.06;5127755;28;20532;-71
2021/12/01 03:59:36;;;;;;;0.43;0.30;;;;;;;4.88;80.74;95466.28;5128375;28;20501;-70
2021/12/01 04:02:03;;;;;;;0.43;0.30;;;;;;;4.84;80.84;95468.00;5127999;28;20050;-70
2021/12/01 04:04:31;;;;;;;0.38;0.30;;;;;;;4.82;80.58;95472.09;5128619;28;20051;-70
2021/12/01 04:06:57;;;;;;;1.05;0.50;;;;;;;4.86;80.84;95465.81;5128258;28;20048;-71
2021/12/01 04:09:25;;;;;;;0.32;0.20;;;;;;;4.89;80.19;95467.88;5128058;28;20490;-70
2021/12/01 04:11:52;;;;;;;0.57;0.20;;;;;;;4.93;80.36;95470.78;5128565;28;20051;-70
2021/12/01 04:14:19;;;;;;;0.30;0.30;;;;;;;4.92;79.71;95464.59;5127132;28;20047;-70
2021/12/01 04:16:45;;;;;;;0.40;0.30;;;;;;;4.98;79.74;95466.06;5127950;28;20093;-70
2021/12/01 04:19:12;;;;;;;0.43;0.43;;;;;;;5.02;79.26;95454.69;5127748;28;20047;-70
2021/12/01 04:21:40;;;;;;;1.05;0.40;;;;;;;5.03;79.45;95450.88;5128009;28;20063;-70
2021/12/01 04:24:08;;;;;;;0.22;0.22;;;;;;;5.01;79.98;95442.28;5127507;28;20047;-70
2021/12/01 04:26:35;;;;;;;0.30;0.30;;;;;;;5.00;80.39;95451.47;5128300;28;20054;-70
2021/12/01 04:29:03;;;;;;;0.57;0.30;;;;;;;4.95;80.49;95449.69;5127966;28;20063;-70
2021/12/01 04:31:31;;;;;;;0.80;0.45;;;;;;;4.92;81.16;95451.09;5128624;28;20138;-70
2021/12/01 04:33:58;;;;;;;0.45;0.32;;;;;;;4.87;81.16;95448.50;5128000;28;20074;-70
2021/12/01 04:36:27;;;;;;;0.57;0.30;;;;;;;4.83;81.62;95442.13;5127502;28;20058;-70
2021/12/01 04:38:55;;;;;;;0.70;0.60;;;;;;;4.82;81.66;95445.13;5129614;27;20090;-71
2021/12/01 04:41:22;;;;;;;0.80;0.50;;;;;;;4.83;81.65;95425.16;5131370;27;20083;-70
2021/12/01 04:43:49;;;;;;;0.63;0.40;;;;;;;4.82;81.90;95435.13;5132203;27;20053;-70
2021/12/01 04:46:19;;;;;;;1.85;0.32;;;;;;;4.82;81.94;95418.97;5130531;27;20059;-70
2021/12/01 04:48:46;;;;;;;1.77;0.40;;;;;;;4.85;81.92;95429.13;5132108;27;20115;-70
2021/12/01 04:51:13;;;;;;;0.50;0.40;;;;;;;4.83;81.59;95419.75;5131658;27;20050;-70
2021/12/01 04:53:39;;;;;;;0.35;0.30;;;;;;;4.83;81.68;95420.53;5132078;27;20055;-71
2021/12/01 04:56:07;;;;;;;0.32;0.30;;;;;;;4.87;81.25;95415.34;5131118;27;20532;-70
2021/12/01 04:58:34;;;;;;;0.60;0.45;;;;;;;4.90;81.10;95418.22;5131605;27;20571;-70
2021/12/01 05:01:01;;;;;;;0.98;0.40;;;;;;;4.94;80.94;95411.13;5131707;27;20051;-70
2021/12/01 05:03:29;;;;;;;0.55;0.40;;;;;;;4.95;80.90;95410.00;5131682;27;20066;-70
2021/12/01 05:05:56;;;;;;;0.50;0.50;;;;;;;5.00;80.58;95411.00;5131816;27;20093;-70
2021/12/01 05:08:23;;;;;;;0.90;0.50;;;;;;;5.00;80.62;95392.13;5131174;27;20051;-70
2021/12/01 05:10:50;;;;;;;1.33;0.60;;;;;;;5.03;80.51;95395.00;5131571;27;20491;-70
2021/12/01 05:13:18;;;;;;;0.80;0.50;;;;;;;5.02;79.91;95401.50;5130835;27;20051;-70
2021/12/01 05:15:45;;;;;;;0.70;0.50;;;;;;;5.03;79.81;95391.50;5127882;27;20688;-70
2021/12/01 05:18:11;;;;;;;1.00;0.50;;;;;;;5.08;79.85;95389.50;5131200;27;20054;-70
2021/12/01 05:20:39;;;;;;;0.90;0.65;;;;;;;5.07;79.16;95392.50;5131768;27;20055;-70
2021/12/01 05:23:06;;;;;;;0.60;0.45;;;;;;;5.09;79.03;95384.88;5131007;27;20051;-71
2021/12/01 05:25:33;;;;;;;0.98;0.68;;;;;;;5.12;79.13;95387.00;5130746;27;20122;-70
2021/12/01 05:28:00;;;;;;;0.70;0.60;;;;;;;5.14;79.04;95384.78;5130437;27;20051;-70
2021/12/01 05:30:27;;;;;;;0.70;0.52;;;;;;;5.14;79.15;95377.47;5130204;27;20047;-70
2021/12/01 05:32:54;;;;;;;0.45;0.40;;;;;;;5.19;78.65;95384.66;5130682;27;20413;-70
2021/12/01 05:35:20;;;;;;;1.10;0.70;;;;;;;5.22;78.10;95375.94;5129854;27;20203;-70
2021/12/01 05:37:47;;;;;;;1.00;0.60;;;;;;;5.23;78.16;95364.03;5130528;27;20062;-70
2021/12/01 05:40:13;;;;;;;1.25;0.70;;;;;;;5.25;77.84;95367.22;5129391;27;20054;-70
2021/12/01 05:42:40;;;;;;;0.88;0.60;;;;;;;5.28;77.72;95366.63;5130878;27;20407;-70
2021/12/01 05:45:07;;;;;;;0.77;0.47;;;;;;;5.28;77.74;95361.22;5129077;27;20054;-70
2021/12/01 05:47:35;;;;;;;0.93;0.70;;;;;;;5.31;77.57;95371.38;5130254;27;20047;-70
2021/12/01 05:50:02;;;;;;;0.65;0.50;;;;;;;5.33;77.44;95361.09;5128814;27;20788;-71
2021/12/01 05:52:28;;;;;;;1.00;0.70;;;;;;;5.34;77.81;95356.47;5129878;27;20051;-71
2021/12/01 05:54:55;;;;;;;1.00;0.60;;;;;;;5.33;77.39;95347.59;5129435;27;20723;-72
2021/12/01 05:57:22;;;;;;;1.88;0.90;;;;;;;5.29;78.32;95341.22;5128267;27;20071;-73
2021/12/01 05:59:48;;;;;;;0.85;0.60;;;;;;;5.26;78.25;95339.13;5129746;27;20179;-72
2021/12/01 06:02:15;;;;;;;1.38;0.85;;;;;;;5.23;78.23;95342.44;5129139;27;20051;-72
2021/12/01 06:04:44;;;;;;;2.25;0.82;;;;;;;5.22;78.62;95346.25;5130048;27;20054;-72
2021/12/01 06:07:10;;;;;;;2.85;0.80;;;;;;;5.21;79.31;95339.25;5128446;27;20051;-72
2021/12/01 06:09:37;;;;;;;1.33;0.80;;;;;;;5.13;79.43;95337.31;5130482;27;20054;-72
2021/12/01 06:12:04;;;;;;;1.02;0.70;;;;;;;5.08;80.57;95334.72;5128916;27;20503;-71
2021/12/01 06:14:32;;;;;;;1.48;1.00;;;;;;;5.03;81.38;95335.66;5129241;27;20047;-71
2021/12/01 06:16:59;;;;;;;3.03;0.90;;;;;;;4.92;81.58;95332.41;5129198;27;20045;-72
2021/12/01 06:19:26;;;;;;;2.25;0.65;;;;;;;4.88;81.81;95320.63;5129096;27;20051;-72
2021/12/01 06:21:53;;;;;;;1.58;1.13;;;;;;;4.85;82.58;95323.91;5129370;27;20046;-71
2021/12/01 06:24:20;;;;;;;1.40;0.80;;;;;;;4.84;82.55;95319.63;5128776;27;20054;-72
2021/12/01 06:26:46;;;;;;;1.10;0.90;;;;;;;4.81;82.27;95309.47;5129349;27;20056;-72
2021/12/01 06:29:13;;;;;;;1.90;0.80;;;;;;;4.83;82.58;95317.25;5129512;27;20043;-71
2021/12/01 06:31:40;;;;;;;1.45;0.90;;;;;;;4.86;81.93;95303.97;5129515;27;20505;-72
2021/12/01 06:34:06;;;;;;;1.88;1.02;;;;;;;4.87;82.62;95305.53;5129943;27;20058;-71
2021/12/01 06:36:33;;;;;;;3.22;0.98;;;;;;;4.86;82.58;95306.66;5129691;27;20057;-71
2021/12/01 06:39:01;;;;;;;2.35;0.80;;;;;;;4.81;82.96;95301.38;5129644;27;20062;-71
2021/12/01 06:41:28;;;;;;;1.20;0.70;;;;;;;4.80;83.01;95294.38;5112468;27;20054;-71
2021/12/01 06:43:54;;;;;;;1.10;0.77;;;;;;;4.82;83.21;95284.09;5114021;27;20043;-71
2021/12/01 06:46:22;;;;;;;2.13;1.00;;;;;;;4.85;82.78;95288.06;5107859;27;20078;-72
2021/12/01 06:48:48;;;;;;;1.75;0.90;;;;;;;4.84;82.88;95286.47;5109205;28;20055;-72
2021/12/01 06:51:15;;;;;;;2.08;1.00;;;;;;;4.86;82.73;95282.38;5108855;27;20055;-72
2021/12/01 06:53:41;;;;;;;1.98;0.95;;;;;;;4.88;82.39;95282.84;5109118;27;20055;-73
2021/12/01 06:56:10;;;;;;;1.67;0.80;;;;;;;4.89;82.41;95280.94;5108558;27;20075;-72
2021/12/01 06:58:37;;;;;;;3.65;0.75;;;;;;;4.94;82.37;95278.94;5109171;28;20120;-73
2021/12/01 07:01:05;;;;;;;0.90;0.80;;;;;;;4.98;82.31;95279.91;5107836;28;20044;-72
2021/12/01 07:03:31;;;;;;;1.23;0.77;;;;;;;5.02;82.11;95273.91;5108761;28;20056;-72
2021/12/01 07:05:58;;;;;;;1.65;0.80;;;;;;;5.03;81.72;95262.00;5108833;27;20051;-72
2021/12/01 07:08:25;;;;;;;1.13;0.80;;;;;;;5.08;81.79;95256.47;5108118;28;20043;-73
2021/12/01 07:10:52;;;;;;;2.25;0.85;;;;;;;5.08;81.55;95254.56;5108723;28;20059;-72
2021/12/01 07:13:20;;;;;;;1.00;0.70;;;;;;;5.13;81.20;95250.94;5116930;27;20047;-73
2021/12/01 07:15:47;;;;;;;1.00;0.70;;;;;;;5.17;81.29;95258.13;5103232;28;20050;-74
2021/12/01 07:18:14;;;;;;;1.48;0.80;;;;;;;5.21;80.68;95252.88;5106617;28;20044;-72
2021/12/01 07:20:42;;;;;;;1.30;0.80;;;;;;;5.23;80.89;95246.06;5103000;28;20060;-74
2021/12/01 07:23:08;;;;;;;1.20;0.88;;;;;;;5.28;80.63;95241.66;5097314;28;20052;-73
2021/12/01 07:25:35;;;;;;;1.00;0.70;;;;;;;5.26;80.31;95244.66;5099773;28;20059;-74
2021/12/01 07:28:01;;;;;;;1.08;0.73;;;;;;;5.31;80.45;95236.41;5098879;28;20054;-72
2021/12/01 07:30:29;;;;;;;1.42;0.50;;;;;;;5.31;79.78;95235.63;5096273;28;20415;-73
2021/12/01 07:32:56;;;;;;;1.65;0.70;;;;;;;5.32;79.92;95232.59;5096014;28;20760;-72
2021/12/01 07:35:23;;;;;;;0.50;0.47;;;;;;;5.35;79.44;95232.00;5098881;28;20050;-73
2021/12/01 07:37:49;;;;;;;2.75;0.52;;;;;;;5.39;79.42;95235.66;5099406;28;20051;-73
2021/12/01 07:40:16;;;;;;;2.65;0.70;;;;;;;5.40;79.25;95223.75;5097534;28;20092;-72
2021/12/01 07:42:43;;;;;;;1.17;0.73;;;;;;;5.42;79.00;95226.91;5098418;28;20055;-74
2021/12/01 07:45:10;;;;;;;2.10;0.80;;;;;;;5.44;79.17;95216.63;5096712;28;20047;-72
2021/12/01 07:47:38;;;;;;;2.65;0.80;;;;;;;5.49;78.92;95211.09;5107511;28;20055;-73
2021/12/01 07:50:06;;;;;;;2.58;0.80;;;;;;;5.52;78.02;95198.84;5103964;28;20044;-72
2021/12/01 07:52:33;;;;;;;0.70;0.60;;;;;;;5.57;77.94;95197.91;5109324;27;20052;-73
2021/12/01 07:54:59;;;;;;;1.85;0.80;;;;;;;5.58;77.84;95189.47;5087766;28;20106;-73
2021/12/01 07:57:26;;;;;;;0.85;0.70;;;;;;;5.63;77.90;95188.53;5090350;28;20051;-73
2021/12/01 07:59:52;;;;;;;2.00;0.80;;;;;;;5.67;78.12;95190.31;5105884;28;20052;-74
2021/12/01 08:02:19;;;;;;;1.40;0.70;;;;;;;5.66;77.08;95185.22;5097987;28;20052;-73
2021/12/01 08:04:47;;;;;;;0.77;0.60;;;;;;;5.67;76.48;95182.19;5087462;28;20052;-74
2021/12/01 08:07:13;;;;;;;1.08;0.50;;;;;;;5.69;76.89;95185.41;5096881;28;20048;-73
2021/12/01 08:09:40;;;;;;;1.88;0.70;;;;;;;5.73;76.79;95188.25;5099636;28;20518;-73
2021/12/01 08:12:11;;;;;;;2.42;0.60;;;;;;;5.77;76.19;95181.13;5098229;28;20056;-73
2021/12/01 08:14:37;;;;;;;1.10;0.52;;;;;;;5.82;75.41;95186.38;5101550;28;20131;-73
2021/12/01 08:17:04;;;;;;;1.17;0.50;;;;;;;5.87;75.09;95183.50;5119700;27;20056;-73
2021/12/01 08:19:31;;;;;;;1.67;0.55;;;;;;;5.95;74.59;95181.94;5111168;28;20666;-73
2021/12/01 08:21:59;;;;;;;1.40;0.80;;;;;;;6.03;74.64;95185.78;5111902;28;20059;-74
2021/12/01 08:24:25;;;;;;;0.77;0.50;;;;;;;6.06;73.95;95182.47;5111460;28;20049;-73
2021/12/01 08:26:52;;;;;;;0.93;0.60;;;;;;;6.07;73.51;95159.72;5094427;28;20058;-74
2021/12/01 08:29:19;;;;;;;2.17;0.70;;;;;;;6.06;74.12;95161.63;5090501;28;20507;-74
2021/12/01 08:31:45;;;;;;;1.10;0.60;;;;;;;6.07;74.18;95157.81;5091063;28;20063;-73
2021/12/01 08:34:13;;;;;;;1.63;0.60;;;;;;;6.10;74.25;95148.25;5091122;28;20048;-74
2021/12/01 08:36:39;;;;;;;1.40;0.80;;;;;;;6.13;73.72;95144.94;5118023;27;20064;-74
2021/12/01 08:39:07;;;;;;;0.77;0.60;;;;;;;6.17;73.88;95143.19;5104862;28;20098;-72
2021/12/01 08:41:34;;;;;;;1.60;0.60;;;;;;;6.09;72.90;95133.94;5111119;28;20047;-73
2021/12/01 08:44:00;;;;;;;1.20;0.57;;;;;;;6.03;73.00;95137.13;5111661;28;20039;-73
2021/12/01 08:46:27;;;;;;;0.82;0.55;;;;;;;6.03;72.96;95126.34;5107267;27;20048;-73
2021/12/01 08:48:53;;;;;;;0.70;0.57;;;;;;;6.00;72.68;95133.97;5111017;27;20058;-73
2021/12/01 08:51:20;;;;;;;1.02;0.60;;;;;;;6.03;73.42;95129.81;5110549;28;20521;-73
2021/12/01 08:53:47;;;;;;;1.05;0.65;;;;;;;6.04;73.24;95122.50;5108233;28;20091;-73
2021/12/01 08:56:15;;;;;;;0.55;0.50;;;;;;;6.07;72.64;95132.69;5090365;28;20055;-74
2021/12/01 08:58:42;;;;;;;0.95;0.52;;;;;;;6.10;72.56;95132.03;5089902;28;20059;-73
2021/12/01 09:01:08;;;;;;;1.58;0.60;;;;;;;6.15;72.39;95137.28;5089932;28;20078;-73
2021/12/01 09:03:36;;;;;;;1.10;0.77;;;;;;;6.15;72.81;95142.69;5090144;28;20052;-74
2021/12/01 09:06:03;;;;;;;0.70;0.40;;;;;;;6.10;71.78;95148.25;5089950;28;20051;-73
2021/12/01 09:08:29;;;;;;;1.05;0.40;;;;;;;6.11;71.64;95137.16;5089399;28;20052;-74
2021/12/01 09:10:58;;;;;;;0.68;0.50;;;;;;;6.11;72.32;95144.44;5090411;28;20043;-73
2021/12/01 09:13:28;;;;;;;0.98;0.55;;;;;;;6.12;72.47;95156.84;5089272;28;20056;-73
2021/12/01 09:15:55;;;;;;;0.60;0.52;;;;;;;6.22;71.98;95145.72;5102630;28;20064;-72
2021/12/01 09:18:22;;;;;;;2.28;0.50;;;;;;;6.40;71.71;95144.56;5109215;28;20056;-73
2021/12/01 09:20:49;;;;;;;1.13;0.70;;;;;;;6.57;70.62;95151.06;5110944;27;20055;-73
2021/12/01 09:23:17;;;;;;;0.80;0.50;;;;;;;6.58;70.88;95152.66;5108453;28;20043;-73
2021/12/01 09:25:43;;;;;;;0.93;0.60;;;;;;;6.60;70.56;95140.41;5108685;28;20044;-74
2021/12/01 09:28:10;;;;;;;2.08;0.50;;;;;;;6.61;70.52;95138.50;5109633;28;20047;-72
2021/12/01 09:30:38;;;;;;;0.65;0.60;;;;;;;6.70;70.15;95137.34;5109694;28;20047;-73
2021/12/01 09:33:04;;;;;;;0.98;0.60;;;;;;;6.77;69.53;95134.16;5110182;28;20047;-72
2021/12/01 09:35:31;;;;;;;0.30;0.30;;;;;;;6.97;68.27;95117.19;5109289;28;20142;-73
2021/12/01 09:37:57;;;;;;;0.80;0.60;;;;;;;7.21;67.91;95121.25;5110049;28;20048;-72
2021/12/01 09:40:24;;;;;;;1.10;0.63;;;;;;;7.48;66.71;95099.09;5094802;28;20044;-74
2021/12/01 09:42:53;;;;;;;0.95;0.45;;;;;;;7.54;66.58;95119.47;5089629;28;20052;-75
2021/12/01 09:45:23;;;;;;;1.02;0.60;;;;;;;7.70;65.57;95116.97;5096618;28;20048;-74
2021/12/01 09:47:53;;;;;;;0.95;0.47;;;;;;;7.93;65.21;95109.28;5109021;28;20791;-73
2021/12/01 09:50:20;;;;;;;0.85;0.55;;;;;;;8.24;63.50;95102.66;5109935;28;20054;-74
2021/12/01 09:52:47;;;;;;;0.60;0.50;;;;;;;8.14;62.97;95111.97;5108795;27;20058;-74
2021/12/01 09:55:16;;;;;;;0.50;0.40;;;;;;;7.81;63.62;95085.63;5109576;27;20059;-74
2021/12/01 09:58:03;;;;;;;0.80;0.60;;;;;;;7.89;64.71;95086.69;5108602;28;20103;-74
2021/12/01 10:00:30;;;;;;;1.38;0.80;;;;;;;7.90;64.64;95077.44;5118021;27;20051;-74
2021/12/01 10:02:58;;;;;;;1.50;0.40;;;;;;;7.89;63.92;95075.88;5109151;28;20051;-73
2021/12/01 10:05:52;;;;;;;0.60;0.47;;;;;;;7.86;65.27;95065.66;5109160;27;20048;-74
2021/12/01 10:08:21;;;;;;;0.75;0.47;;;;;;;7.85;64.38;95053.25;5108604;27;20066;-74
2021/12/01 10:10:48;;;;;;;1.02;0.50;;;;;;;7.84;64.99;95051.66;5109014;27;20058;-74
2021/12/01 10:13:16;;;;;;;0.90;0.40;;;;;;;7.75;64.76;95037.41;5109334;28;20184;-74
2021/12/01 10:15:43;;;;;;;1.40;1.00;;;;;;;7.79;65.19;95032.91;5109076;28;20052;-74
2021/12/01 10:18:13;;;;;;;2.08;0.60;;;;;;;7.90;64.47;95025.16;5108565;28;20052;-74
2021/12/01 10:20:40;;;;;;;1.08;0.50;;;;;;;7.95;64.55;95019.53;5108881;27;20055;-76
2021/12/01 10:23:11;;;;;;;1.55;0.57;;;;;;;7.97;64.38;95012.63;5109027;28;20043;-73
2021/12/01 10:25:38;;;;;;;2.60;0.40;;;;;;;8.03;63.29;95000.44;5108721;28;20048;-74
2021/12/01 10:28:04;;;;;;;0.80;0.40;;;;;;;8.03;64.72;94992.31;5108284;27;20047;-74
2021/12/01 10:30:39;;;;;;;0.93;0.50;;;;;;;8.00;63.33;94979.44;5109490;28;20058;-74
2021/12/01 10:33:08;;;;;;;0.60;0.40;;;;;;;7.97;63.85;94973.91;5108338;27;20525;-75
2021/12/01 10:35:37;;;;;;;0.70;0.60;;;;;;;7.87;64.15;94974.31;5109264;27;20849;-74
2021/12/01 10:38:04;;;;;;;0.65;0.30;;;;;;;7.80;64.31;94969.44;5107098;28;20708;-74
2021/12/01 10:40:31;;;;;;;0.40;0.30;;;;;;;7.83;64.85;94963.38;5105827;28;20048;-74
2021/12/01 10:42:59;;;;;;;0.90;0.35;;;;;;;7.83;64.51;94953.31;5088282;28;20134;-74
2021/12/01 10:45:28;;;;;;;0.77;0.30;;;;;;;7.84;63.98;94948.69;5096013;28;20043;-74
2021/12/01 10:47:55;;;;;;;0.88;0.43;;;;;;;7.87;64.10;94942.59;5108325;27;20055;-74
2021/12/01 10:50:26;;;;;;;0.47;0.32;;;;;;;7.95;63.64;94928.16;5107885;27;20062;-74
2021/12/01 10:53:02;;;;;;;1.10;0.43;;;;;;;7.99;63.68;94920.16;5108609;28;20056;-74
2021/12/01 10:55:30;;;;;;;0.90;0.40;;;;;;;7.99;63.21;94923.66;5123917;27;20055;-74
2021/12/01 10:57:59;;;;;;;0.25;0.25;;;;;;;8.04;63.69;94918.03;5108036;28;20062;-76
2021/12/01 11:00:27;;;;;;;0.40;0.32;;;;;;;8.15;63.50;94906.72;5107014;28;20050;-74
2021/12/01 11:02:55;;;;;;;0.68;0.50;;;;;;;8.26;63.90;94905.16;5108926;28;20054;-74
2021/12/01 11:05:30;;;;;;;0.63;0.40;;;;;;;8.36;62.56;94891.97;5106917;28;20047;-74
2021/12/01 11:08:09;;;;;;;2.38;0.50;;;;;;;8.59;62.83;94892.28;5107689;28;20067;-74
2021/12/01 11:10:36;;;;;;;0.45;0.30;;;;;;;8.83;61.93;94880.63;5127869;27;20742;-74
2021/12/01 11:13:04;;;;;;;0.93;0.47;;;;;;;9.09;61.12;94871.28;5127898;27;20055;-75
2021/12/01 11:15:33;;;;;;;0.63;0.38;;;;;;;9.36;60.04;94864.28;5128639;27;20050;-75
2021/12/01 11:18:01;;;;;;;0.47;0.40;;;;;;;9.36;60.64;94859.63;5127787;27;20047;-72
2021/12/01 11:20:36;;;;;;;2.30;0.40;;;;;;;9.21;59.77;94862.28;5128729;27;20502;-74
2021/12/01 11:23:26;;;;;;;1.58;0.40;;;;;;;9.02;60.55;94852.84;5127648;27;20055;-74
2021/12/01 11:25:55;;;;;;;0.30;0.30;;;;;;;8.93;60.79;94851.41;5122369;27;20425;-75
2021/12/01 11:28:24;;;;;;;0.55;0.30;;;;;;;8.87;60.72;94834.56;5127242;27;20074;-76
2021/12/01 11:30:54;;;;;;;0.60;0.40;;;;;;;8.80;61.41;94832.44;5128135;27;20046;-75
2021/12/01 11:33:22;;;;;;;0.40;0.30;;;;;;;8.76;61.92;94830.75;5128223;27;20062;-75
2021/12/01 11:35:50;;;;;;;0.93;0.40;;;;;;;8.70;61.61;94819.34;5127412;27;20732;-74
2021/12/01 11:38:19;;;;;;;0.43;0.30;;;;;;;8.70;61.84;94815.84;5127226;27;20628;-73
2021/12/01 11:40:47;;;;;;;2.30;0.30;;;;;;;8.73;61.58;94810.53;5127574;27;20043;-74
2021/12/01 11:43:16;;;;;;;0.10;0.10;;;;;;;8.78;62.29;94806.78;5128039;27;20043;-74
2021/12/01 11:45:45;;;;;;;0.30;0.20;;;;;;;8.78;61.93;94802.16;5128058;27;20051;-74
2021/12/01 11:48:15;;;;;;;0.32;0.30;;;;;;;8.78;61.20;94793.22;5126533;27;20047;-74